createdAt,value
2022-12-18T00:01:51.876Z,29.10
2022-12-18T00:04:23.784Z,30.10
2022-12-18T00:06:52.391Z,27.70
2022-12-18T00:09:20.694Z,28.10
2022-12-18T00:11:49.272Z,26.10
2022-12-18T00:14:17.411Z,27.10
2022-12-18T00:16:47.500Z,27.40
2022-12-18T00:19:16.395Z,26.20
2022-12-18T00:21:44.938Z,27.10
2022-12-18T00:24:13.057Z,28.10
2022-12-18T00:26:40.982Z,26.70
2022-12-18T00:29:14.788Z,27.30
2022-12-18T00:31:44.989Z,25.80
2022-12-18T00:34:14.134Z,28.70
2022-12-18T00:36:42.444Z,25.50
2022-12-18T00:39:11.919Z,27.30
2022-12-18T00:41:58.290Z,25.20
2022-12-18T00:44:27.070Z,26.80
2022-12-18T00:46:55.143Z,27.40
2022-12-18T00:49:23.154Z,26.20
2022-12-18T00:51:51.136Z,27.50
2022-12-18T00:54:19.164Z,26.60
2022-12-18T00:56:50.268Z,24.90
2022-12-18T00:59:19.508Z,27.00
2022-12-18T01:01:48.228Z,24.60
2022-12-18T01:04:16.493Z,25.20
2022-12-18T01:06:47.087Z,24.70
2022-12-18T01:09:14.963Z,25.60
2022-12-18T01:11:42.936Z,27.20
2022-12-18T01:14:12.533Z,24.10
2022-12-18T01:16:40.613Z,26.40
2022-12-18T01:19:08.687Z,24.90
2022-12-18T01:21:36.668Z,26.40
2022-12-18T01:24:06.167Z,26.00
2022-12-18T01:26:35.309Z,25.60
2022-12-18T01:29:03.849Z,26.10
2022-12-18T01:31:34.387Z,25.50
2022-12-18T01:34:05.642Z,26.80
2022-12-18T01:36:37.296Z,24.80
2022-12-18T01:39:13.390Z,26.50
2022-12-18T01:42:02.116Z,26.70
2022-12-18T01:44:51.576Z,26.00
2022-12-18T01:47:45.569Z,26.10
2022-12-18T01:50:19.041Z,24.20
2022-12-18T01:52:56.746Z,26.20
2022-12-18T01:55:32.265Z,25.60
2022-12-18T01:58:01.428Z,24.00
2022-12-18T02:00:30.578Z,26.80
2022-12-18T02:02:58.613Z,22.80
2022-12-18T02:05:48.094Z,27.80
2022-12-18T02:08:26.153Z,26.40
2022-12-18T02:11:28.534Z,25.20
2022-12-18T02:14:10.224Z,25.00
2022-12-18T02:16:38.181Z,27.20
2022-12-18T02:19:21.962Z,25.60
2022-12-18T02:22:22.191Z,22.70
2022-12-18T02:25:15.124Z,28.60
2022-12-18T02:27:46.863Z,24.80
2022-12-18T02:30:16.329Z,27.40
2022-12-18T02:32:51.088Z,29.90
2022-12-18T02:35:26.346Z,28.20
2022-12-18T02:40:28.642Z,25.60
2022-12-18T02:43:04.207Z,26.80
2022-12-18T02:45:32.510Z,29.70
2022-12-18T02:48:00.853Z,26.40
2022-12-18T02:50:36.046Z,29.00
2022-12-18T02:53:29.506Z,28.10
2022-12-18T02:56:06.882Z,29.50
2022-12-18T02:58:55.021Z,29.70
2022-12-18T03:02:10.565Z,30.10
2022-12-18T03:04:52.724Z,26.10
2022-12-18T03:07:58.910Z,25.20
2022-12-18T03:10:31.686Z,24.40
2022-12-18T03:13:17.690Z,22.90
2022-12-18T03:15:50.627Z,24.00
2022-12-18T03:18:23.238Z,22.80
2022-12-18T03:20:57.752Z,23.50
2022-12-18T03:23:30.274Z,22.30
2022-12-18T03:26:07.644Z,21.20
2022-12-18T03:28:43.315Z,24.00
2022-12-18T03:31:14.752Z,21.90
2022-12-18T03:33:48.153Z,23.80
2022-12-18T03:36:16.456Z,24.60
2022-12-18T03:38:44.335Z,24.90
2022-12-18T03:41:24.381Z,23.10
2022-12-18T03:44:27.954Z,24.40
2022-12-18T03:47:13.670Z,25.40
2022-12-18T03:49:57.507Z,25.70
2022-12-18T03:52:33.937Z,26.30
2022-12-18T03:55:04.339Z,27.30
2022-12-18T03:57:34.158Z,26.00
2022-12-18T04:00:10.871Z,25.50
2022-12-18T04:02:57.936Z,28.80
2022-12-18T04:05:36.242Z,27.30
2022-12-18T04:08:05.664Z,27.30
2022-12-18T04:10:38.402Z,27.00
2022-12-18T04:13:06.482Z,27.90
2022-12-18T04:15:38.892Z,28.20
2022-12-18T04:18:08.762Z,27.90
2022-12-18T04:20:42.815Z,28.00
2022-12-18T04:23:12.423Z,29.30
2022-12-18T04:25:40.586Z,27.30
2022-12-18T04:28:15.019Z,26.00
2022-12-18T04:30:43.823Z,26.60
2022-12-18T04:33:12.920Z,26.30
2022-12-18T04:35:44.571Z,23.90
2022-12-18T04:38:12.578Z,27.80
2022-12-18T04:40:41.351Z,25.30
2022-12-18T04:43:14.127Z,27.20
2022-12-18T04:45:42.084Z,27.30
2022-12-18T04:48:10.054Z,29.60
2022-12-18T04:50:38.691Z,27.00
2022-12-18T04:53:06.695Z,28.60
2022-12-18T04:55:34.830Z,29.70
2022-12-18T04:58:02.726Z,26.50
2022-12-18T05:00:30.706Z,26.80
2022-12-18T05:02:58.576Z,26.70
2022-12-18T05:05:26.725Z,27.30
2022-12-18T05:07:54.575Z,26.70
2022-12-18T05:10:22.780Z,28.40
2022-12-18T05:13:01.229Z,25.70
2022-12-18T05:15:31.896Z,28.90
2022-12-18T05:18:00.741Z,25.50
2022-12-18T05:20:29.237Z,25.10
2022-12-18T05:22:57.417Z,28.30
2022-12-18T05:25:25.855Z,24.40
2022-12-18T05:27:53.788Z,26.20
2022-12-18T05:30:21.797Z,25.80
2022-12-18T05:32:49.708Z,27.80
2022-12-18T05:35:17.842Z,26.80
2022-12-18T05:37:46.155Z,25.90
2022-12-18T05:40:14.636Z,26.60
2022-12-18T05:42:42.493Z,28.50
2022-12-18T05:45:10.501Z,30.40
2022-12-18T05:47:38.429Z,28.00
2022-12-18T05:50:07.988Z,27.50
2022-12-18T05:52:35.861Z,30.00
2022-12-18T05:55:03.944Z,30.70
2022-12-18T05:57:31.857Z,28.50
2022-12-18T05:59:59.799Z,28.50
2022-12-18T06:02:27.801Z,27.80
2022-12-18T06:04:56.051Z,28.30
2022-12-18T06:07:23.972Z,27.30
2022-12-18T06:09:51.838Z,28.60
2022-12-18T06:12:19.743Z,28.60
2022-12-18T06:14:47.640Z,27.80
2022-12-18T06:17:15.455Z,29.90
2022-12-18T06:19:43.361Z,27.80
2022-12-18T06:22:11.264Z,27.20
2022-12-18T06:24:39.127Z,27.70
2022-12-18T06:27:06.985Z,26.80
2022-12-18T06:29:34.971Z,27.00
2022-12-18T06:32:02.853Z,26.90
2022-12-18T06:34:33.669Z,27.40
2022-12-18T06:37:01.503Z,29.60
2022-12-18T06:39:29.502Z,29.50
2022-12-18T06:41:57.447Z,26.70
2022-12-18T06:44:25.415Z,28.40
2022-12-18T06:46:53.371Z,27.90
2022-12-18T06:49:21.305Z,29.60
2022-12-18T06:51:49.302Z,25.90
2022-12-18T06:54:17.852Z,30.10
2022-12-18T06:56:48.793Z,28.20
2022-12-18T06:59:16.958Z,29.10
2022-12-18T07:01:45.556Z,29.20
2022-12-18T07:04:13.787Z,28.60
2022-12-18T07:06:41.786Z,28.80
2022-12-18T07:09:09.692Z,27.50
2022-12-18T07:11:37.633Z,28.50
2022-12-18T07:14:05.501Z,26.50
2022-12-18T07:16:33.581Z,28.40
2022-12-18T07:19:01.620Z,29.40
2022-12-18T07:21:29.700Z,29.60
2022-12-18T07:23:57.550Z,27.90
2022-12-18T07:26:25.409Z,26.90
2022-12-18T07:28:58.573Z,26.90
2022-12-18T07:31:28.145Z,22.60
2022-12-18T07:33:56.721Z,25.90
2022-12-18T07:36:25.258Z,25.70
2022-12-18T07:38:54.065Z,26.60
2022-12-18T07:41:21.959Z,26.80
2022-12-18T07:43:50.053Z,26.60
2022-12-18T07:46:20.816Z,21.60
2022-12-18T07:48:49.821Z,21.70
2022-12-18T07:51:19.493Z,21.70
2022-12-18T07:53:49.322Z,21.30
2022-12-18T07:56:30.426Z,20.60
2022-12-18T07:59:00.327Z,22.70
2022-12-18T08:01:28.684Z,20.00
2022-12-18T08:03:58.734Z,20.20
2022-12-18T08:06:26.979Z,20.80
2022-12-18T08:08:56.467Z,20.10
2022-12-18T08:11:26.708Z,21.50
2022-12-18T08:13:55.217Z,20.90
2022-12-18T08:16:24.031Z,23.00
2022-12-18T08:18:54.203Z,22.90
2022-12-18T08:21:28.148Z,20.90
2022-12-18T08:23:58.541Z,21.80
2022-12-18T08:26:29.426Z,20.40
2022-12-18T08:28:59.044Z,22.60
2022-12-18T08:31:28.855Z,20.70
2022-12-18T08:33:57.873Z,20.10
2022-12-18T08:36:26.057Z,20.40
2022-12-18T08:38:55.670Z,20.50
2022-12-18T08:41:24.201Z,25.30
2022-12-18T08:44:11.006Z,22.90
2022-12-18T08:46:41.205Z,22.40
2022-12-18T08:49:11.404Z,23.00
2022-12-18T08:51:40.135Z,20.50
2022-12-18T08:54:10.494Z,20.00
2022-12-18T08:56:38.455Z,21.50
2022-12-18T08:59:06.554Z,20.60
2022-12-18T09:01:35.302Z,21.20
2022-12-18T09:04:04.058Z,20.60
2022-12-18T09:06:32.758Z,20.70
2022-12-18T09:09:01.323Z,19.90
2022-12-18T09:11:33.100Z,19.70
2022-12-18T09:14:02.479Z,19.10
2022-12-18T09:16:32.718Z,18.60
2022-12-18T09:19:01.189Z,17.90
2022-12-18T09:21:34.258Z,18.50
2022-12-18T09:24:08.960Z,16.70
2022-12-18T09:26:38.544Z,18.50
2022-12-18T09:29:08.438Z,17.90
2022-12-18T09:31:37.839Z,17.60
2022-12-18T09:34:05.718Z,16.30
2022-12-18T09:36:34.373Z,21.50
2022-12-18T09:39:06.449Z,20.10
2022-12-18T09:41:54.363Z,19.90
2022-12-18T09:44:24.836Z,18.30
2022-12-18T09:47:01.750Z,17.20
2022-12-18T09:49:35.656Z,17.70
2022-12-18T09:52:30.906Z,18.00
2022-12-18T09:55:11.797Z,18.70
2022-12-18T09:57:47.002Z,16.40
2022-12-18T10:00:22.250Z,15.20
2022-12-18T10:02:54.129Z,15.40
2022-12-18T10:05:37.320Z,17.20
2022-12-18T10:08:37.446Z,14.20
2022-12-18T10:11:28.555Z,15.00
2022-12-18T10:14:20.474Z,15.50
2022-12-18T10:17:12.648Z,15.00
2022-12-18T10:19:50.171Z,15.30
2022-12-18T10:22:21.255Z,15.70
2022-12-18T10:24:59.277Z,16.00
2022-12-18T10:27:29.691Z,14.90
2022-12-18T10:29:58.667Z,14.90
2022-12-18T10:32:30.032Z,13.20
2022-12-18T10:35:02.751Z,14.20
2022-12-18T10:38:01.643Z,13.50
2022-12-18T10:40:29.877Z,11.60
2022-12-18T10:43:20.149Z,11.30
2022-12-18T10:46:21.683Z,11.30
2022-12-18T10:48:54.658Z,13.00
2022-12-18T10:51:31.534Z,11.60
2022-12-18T10:54:03.082Z,13.00
2022-12-18T10:56:35.853Z,12.60
2022-12-18T10:59:12.995Z,12.00
2022-12-18T11:01:57.929Z,11.90
2022-12-18T11:04:28.808Z,12.50
2022-12-18T11:07:08.606Z,12.30
2022-12-18T11:58:38.208Z,12.20
2022-12-18T12:01:06.188Z,12.20
2022-12-18T12:03:46.190Z,14.10
2022-12-18T12:06:35.958Z,13.30
2022-12-18T12:09:18.967Z,13.10
2022-12-18T12:12:16.122Z,15.20
2022-12-18T12:15:11.328Z,13.60
2022-12-18T12:17:51.333Z,11.80
2022-12-18T12:20:39.177Z,11.30
2022-12-18T12:23:27.998Z,12.00
2022-12-18T12:26:11.156Z,11.40
2022-12-18T12:29:20.984Z,11.40
2022-12-18T12:32:04.497Z,10.60
2022-12-18T12:35:11.756Z,12.70
2022-12-18T12:38:01.559Z,11.50
2022-12-18T12:40:54.909Z,15.10
2022-12-18T12:43:49.471Z,12.00
2022-12-18T12:46:23.854Z,10.40
2022-12-18T12:49:02.812Z,12.00
2022-12-18T12:51:37.972Z,12.10
2022-12-18T12:54:14.046Z,11.90
2022-12-18T12:57:12.050Z,11.70
2022-12-18T13:00:04.555Z,12.40
2022-12-18T13:02:57.850Z,12.30
2022-12-18T13:05:56.082Z,12.40
2022-12-18T13:08:24.041Z,12.70
2022-12-18T13:11:13.819Z,14.60
2022-12-18T13:13:56.754Z,15.40
2022-12-18T13:16:30.639Z,13.40
2022-12-18T13:18:59.866Z,14.50
2022-12-18T13:21:34.150Z,14.40
2022-12-18T13:24:28.243Z,13.40
2022-12-18T13:26:56.262Z,11.70
2022-12-18T13:29:45.007Z,11.60
2022-12-18T13:32:26.155Z,13.10
2022-12-18T13:35:23.109Z,12.30
2022-12-18T13:37:54.079Z,13.90
2022-12-18T13:40:40.545Z,16.20
2022-12-18T13:43:33.502Z,15.90
2022-12-18T13:46:23.298Z,14.20
2022-12-18T13:49:15.128Z,15.40
2022-12-18T13:51:47.717Z,15.00
2022-12-18T13:54:41.322Z,13.90
2022-12-18T13:57:31.372Z,13.10
2022-12-18T14:00:29.907Z,17.90
2022-12-18T14:02:59.572Z,18.30
2022-12-18T14:05:35.107Z,17.10
2022-12-18T14:08:11.219Z,17.80
2022-12-18T14:10:48.569Z,18.10
2022-12-18T14:13:36.112Z,18.70
2022-12-18T14:16:07.419Z,21.00
2022-12-18T14:18:44.367Z,18.40
2022-12-18T14:21:26.644Z,19.50
2022-12-18T14:24:27.192Z,19.30
2022-12-18T14:26:55.200Z,20.20
2022-12-18T14:29:27.132Z,19.00
2022-12-18T14:32:18.269Z,18.00
2022-12-18T14:34:55.192Z,22.20
2022-12-18T14:37:28.060Z,20.20
2022-12-18T14:40:08.682Z,20.40
2022-12-18T14:42:38.540Z,22.10
2022-12-18T14:45:43.308Z,23.20
2022-12-18T14:48:48.601Z,24.60
2022-12-18T14:51:20.878Z,21.20
2022-12-18T14:53:55.094Z,21.40
2022-12-18T14:56:38.547Z,20.70
2022-12-18T14:59:24.762Z,20.70
2022-12-18T15:02:02.407Z,21.90
2022-12-18T15:04:39.965Z,20.60
2022-12-18T15:07:21.639Z,21.40
2022-12-18T15:10:13.211Z,22.30
2022-12-18T15:12:45.534Z,24.20
2022-12-18T15:15:38.540Z,22.10
2022-12-18T15:18:09.652Z,23.00
2022-12-18T15:20:47.444Z,22.60
2022-12-18T15:23:24.337Z,23.80
2022-12-18T15:26:11.672Z,23.30
2022-12-18T15:28:51.155Z,22.70
2022-12-18T15:31:38.877Z,22.40
2022-12-18T15:34:22.384Z,23.10
2022-12-18T15:36:52.211Z,23.10
2022-12-18T15:39:20.125Z,24.80
2022-12-18T15:42:06.862Z,23.80
2022-12-18T15:44:35.069Z,26.40
2022-12-18T15:47:03.059Z,25.70
2022-12-18T15:49:30.938Z,24.60
2022-12-18T15:52:01.019Z,23.50
2022-12-18T15:54:47.727Z,22.70
2022-12-18T15:57:24.764Z,23.70
2022-12-18T15:59:55.117Z,23.80
2022-12-18T16:02:23.995Z,23.40
2022-12-18T16:04:53.315Z,22.90
2022-12-18T16:07:24.554Z,22.70
2022-12-18T16:09:53.697Z,22.10
2022-12-18T16:12:24.063Z,23.80
2022-12-18T16:14:52.053Z,25.10
2022-12-18T16:17:20.429Z,24.10
2022-12-18T16:19:48.352Z,20.70
2022-12-18T16:22:25.209Z,23.20
2022-12-18T16:24:54.516Z,28.20
2022-12-18T16:27:23.732Z,28.70
2022-12-18T16:29:52.114Z,29.10
2022-12-18T16:32:22.406Z,30.40
2022-12-18T16:35:01.530Z,29.00
2022-12-18T16:37:29.575Z,30.40
2022-12-18T16:39:57.450Z,27.90
2022-12-18T16:42:25.333Z,26.90
2022-12-18T16:44:55.007Z,25.30
2022-12-18T16:47:22.949Z,25.10
2022-12-18T16:49:52.942Z,24.60
2022-12-18T16:52:22.980Z,23.70
2022-12-18T16:54:51.210Z,22.40
2022-12-18T16:57:21.087Z,23.80
2022-12-18T16:59:53.804Z,22.90
2022-12-18T17:02:24.726Z,22.40
2022-12-18T17:04:58.295Z,23.60
2022-12-18T17:07:28.259Z,22.20
2022-12-18T17:09:57.237Z,23.80
2022-12-18T17:12:26.774Z,23.70
2022-12-18T17:14:54.674Z,23.50
2022-12-18T17:17:23.798Z,24.00
2022-12-18T17:19:52.907Z,22.30
2022-12-18T17:22:23.446Z,23.10
2022-12-18T17:24:51.581Z,23.00
2022-12-18T17:27:19.666Z,25.00
2022-12-18T17:29:48.833Z,23.90
2022-12-18T17:32:18.255Z,23.60
2022-12-18T17:34:46.658Z,23.40
2022-12-18T17:37:15.484Z,25.70
2022-12-18T17:39:43.406Z,27.90
2022-12-18T17:42:14.916Z,27.70
2022-12-18T17:44:44.327Z,26.50
2022-12-18T17:47:13.677Z,24.90
2022-12-18T17:49:42.078Z,26.00
2022-12-18T17:52:10.459Z,24.70
2022-12-18T17:54:41.481Z,26.80
2022-12-18T17:57:10.478Z,27.70
2022-12-18T17:59:38.563Z,26.70
2022-12-18T18:02:07.381Z,24.30
2022-12-18T18:04:36.469Z,26.70
2022-12-18T18:07:04.613Z,26.60
2022-12-18T18:09:32.724Z,24.00
2022-12-18T18:12:19.282Z,26.00
2022-12-18T18:14:47.386Z,26.50
2022-12-18T18:17:15.621Z,26.70
2022-12-18T18:19:44.166Z,27.10
2022-12-18T18:22:15.902Z,25.80
2022-12-18T18:24:46.941Z,25.90
2022-12-18T18:27:15.279Z,26.50
2022-12-18T18:29:43.394Z,27.50
2022-12-18T18:32:11.358Z,27.20
2022-12-18T18:34:42.289Z,25.00
2022-12-18T18:37:10.587Z,28.80
2022-12-18T18:39:38.385Z,32.00
2022-12-18T18:42:06.487Z,29.40
2022-12-18T18:44:35.294Z,28.90
2022-12-18T18:47:03.607Z,29.00
2022-12-18T18:49:34.599Z,28.20
2022-12-18T18:52:02.871Z,30.20
2022-12-18T18:54:31.149Z,27.20
2022-12-18T18:59:49.575Z,29.10
2022-12-18T19:02:18.008Z,28.40
2022-12-18T19:04:47.007Z,30.80
2022-12-18T19:07:29.981Z,27.50
2022-12-18T19:10:05.137Z,28.50
2022-12-18T19:12:53.430Z,31.40
2022-12-18T19:15:23.211Z,28.90
2022-12-18T19:17:51.561Z,29.00
2022-12-18T19:20:19.534Z,28.30
2022-12-18T19:22:48.577Z,29.50
2022-12-18T19:28:13.539Z,26.90
2022-12-18T19:30:50.905Z,26.10
2022-12-18T19:33:42.433Z,28.10
2022-12-18T19:36:21.380Z,27.40
2022-12-18T19:38:51.063Z,29.60
2022-12-18T19:41:20.186Z,32.10
2022-12-18T19:43:50.029Z,32.90
2022-12-18T19:46:20.606Z,29.80
2022-12-18T19:48:49.488Z,31.30
2022-12-18T19:51:20.307Z,31.60
2022-12-18T19:53:49.861Z,30.80
2022-12-18T19:56:23.543Z,32.00
2022-12-18T19:58:52.690Z,37.00
2022-12-18T20:01:22.294Z,37.70
2022-12-18T20:03:52.369Z,41.60
2022-12-18T20:06:25.682Z,39.70
2022-12-18T20:09:00.060Z,37.10
2022-12-18T20:11:41.475Z,35.50
2022-12-18T20:14:12.198Z,33.10
2022-12-18T20:16:40.796Z,31.70
2022-12-18T20:19:10.929Z,30.70
2022-12-18T20:21:39.404Z,29.90
2022-12-18T20:24:08.762Z,31.40
2022-12-18T20:26:36.959Z,31.70
2022-12-18T20:29:05.083Z,29.40
2022-12-18T20:31:33.224Z,28.90
2022-12-18T20:34:02.638Z,25.40
2022-12-18T20:36:34.256Z,26.30
2022-12-18T20:39:07.655Z,25.90
2022-12-18T20:41:39.263Z,25.20
2022-12-18T20:44:21.800Z,23.80
2022-12-18T20:46:54.773Z,23.80
2022-12-18T20:49:24.348Z,25.40
2022-12-18T20:51:53.982Z,24.10
2022-12-18T20:54:23.746Z,24.30
2022-12-18T20:56:52.105Z,22.50
2022-12-18T20:59:20.802Z,24.80
2022-12-18T21:01:49.715Z,22.10
2022-12-18T21:04:19.281Z,23.50
2022-12-18T21:06:57.793Z,25.20
2022-12-18T21:09:30.352Z,26.20
2022-12-18T21:12:40.283Z,26.30
2022-12-18T21:15:13.362Z,26.40
2022-12-18T21:17:45.056Z,25.80
2022-12-18T21:20:17.505Z,24.60
2022-12-18T21:22:47.237Z,25.00
2022-12-18T21:25:15.232Z,27.50
2022-12-18T21:27:43.180Z,27.20
2022-12-18T21:30:15.044Z,29.00
2022-12-18T21:32:43.142Z,28.00
2022-12-18T21:35:11.066Z,27.80
2022-12-18T21:37:39.135Z,27.40
2022-12-18T21:40:08.055Z,26.60
2022-12-18T21:42:54.521Z,28.40
2022-12-18T21:45:22.398Z,30.00
2022-12-18T21:47:50.384Z,27.10
2022-12-18T21:50:18.338Z,29.30
2022-12-18T21:52:46.353Z,27.30
2022-12-18T21:55:14.301Z,26.30
2022-12-18T21:57:42.224Z,27.70
2022-12-18T22:00:18.574Z,25.40
2022-12-18T22:03:17.645Z,27.40
2022-12-18T22:05:37.794Z,26.30
2022-12-18T22:08:07.058Z,28.40
2022-12-18T22:10:36.320Z,30.60
2022-12-18T22:13:05.787Z,30.20
2022-12-18T22:15:33.902Z,30.40
2022-12-18T22:18:02.077Z,30.50
2022-12-18T22:20:30.248Z,32.60
2022-12-18T22:22:59.048Z,32.50
2022-12-18T22:25:32.364Z,34.70
2022-12-18T22:28:22.685Z,36.90
2022-12-18T22:30:50.670Z,40.90
2022-12-18T22:33:25.863Z,35.70
2022-12-18T22:35:53.833Z,34.70
2022-12-18T22:38:21.656Z,36.40
2022-12-18T22:40:49.546Z,32.80
2022-12-18T22:43:17.750Z,34.40
2022-12-18T22:45:47.455Z,34.80
2022-12-18T22:48:15.572Z,32.70
2022-12-18T22:50:44.555Z,31.30
2022-12-18T22:53:12.482Z,32.60
2022-12-18T22:55:40.343Z,29.10
2022-12-18T22:58:08.224Z,30.50
2022-12-18T23:00:36.085Z,29.00
2022-12-18T23:03:04.938Z,27.70
2022-12-18T23:05:35.498Z,29.30
2022-12-18T23:08:03.415Z,27.20
2022-12-18T23:10:31.268Z,28.80
2022-12-18T23:12:59.134Z,26.80
2022-12-18T23:15:28.511Z,28.10
2022-12-18T23:17:58.874Z,28.90
2022-12-18T23:20:28.315Z,27.80
2022-12-18T23:22:56.294Z,27.80
2022-12-18T23:25:24.355Z,27.70
2022-12-18T23:27:52.362Z,29.40
2022-12-18T23:30:20.339Z,29.30
2022-12-18T23:32:48.346Z,31.30
2022-12-18T23:35:17.244Z,30.40
2022-12-18T23:37:59.382Z,29.20
2022-12-18T23:40:29.645Z,28.90
2022-12-18T23:42:59.148Z,30.20
2022-12-18T23:45:27.077Z,28.00
2022-12-18T23:47:54.902Z,29.90
2022-12-18T23:50:29.026Z,30.80
2022-12-18T23:53:04.592Z,30.40
2022-12-18T23:55:39.754Z,31.00
2022-12-18T23:58:14.942Z,30.40
